createdAt,value
2018-11-02T00:00:40.220Z,5.53
2018-11-02T00:05:44.309Z,6.40
2018-11-02T00:11:07.511Z,8.10
2018-11-02T00:16:11.782Z,6.00
2018-11-02T00:21:15.960Z,5.27
2018-11-02T00:26:20.159Z,6.83
2018-11-02T00:31:24.307Z,7.77
2018-11-02T00:36:28.530Z,9.53
2018-11-02T00:41:32.749Z,4.20
2018-11-02T00:46:37.099Z,4.87
2018-11-02T00:51:41.244Z,7.97
2018-11-02T00:56:45.340Z,7.03
2018-11-02T01:01:49.612Z,8.80
2018-11-02T01:06:53.644Z,9.83
2018-11-02T01:11:58.270Z,10.53
2018-11-02T01:17:02.817Z,12.07
2018-11-02T01:22:07.159Z,12.33
2018-11-02T01:27:11.350Z,11.93
2018-11-02T01:32:17.117Z,13.87
2018-11-02T01:37:21.420Z,11.47
2018-11-02T01:42:25.694Z,10.00
2018-11-02T01:48:32.998Z,14.57
2018-11-02T01:53:37.185Z,11.60
2018-11-02T01:58:42.100Z,12.03
2018-11-02T02:03:46.361Z,10.80
2018-11-02T02:08:50.680Z,11.23
2018-11-02T02:13:54.928Z,9.87
2018-11-02T02:18:59.465Z,9.60
2018-11-02T02:24:03.257Z,10.43
2018-11-02T02:29:07.296Z,11.33
2018-11-02T02:34:11.346Z,11.43
2018-11-02T02:39:15.436Z,10.53
2018-11-02T02:44:19.518Z,10.30
2018-11-02T02:49:23.549Z,10.43
2018-11-02T02:54:27.706Z,10.73
2018-11-02T02:59:31.801Z,11.43
2018-11-02T03:04:35.901Z,10.97
2018-11-02T03:09:40.077Z,12.63
2018-11-02T03:14:43.898Z,12.13
2018-11-02T03:19:47.951Z,14.17
2018-11-02T03:24:52.119Z,13.23
2018-11-02T03:29:56.197Z,11.40
2018-11-02T03:35:00.246Z,9.83
2018-11-02T03:40:04.661Z,10.63
2018-11-02T03:45:09.433Z,12.80
2018-11-02T03:50:13.536Z,13.63
2018-11-02T03:55:17.728Z,14.10
2018-11-02T04:00:21.832Z,12.40
2018-11-02T04:05:25.917Z,12.53
2018-11-02T04:10:30.209Z,12.17
2018-11-02T04:15:34.420Z,12.73
2018-11-02T04:20:38.572Z,13.33
2018-11-02T04:25:42.607Z,13.10
2018-11-02T04:30:46.772Z,12.77
2018-11-02T04:35:50.782Z,15.33
2018-11-02T04:40:55.028Z,14.00
2018-11-02T04:45:59.176Z,13.40
2018-11-02T04:51:03.168Z,12.60
2018-11-02T04:56:07.144Z,12.73
2018-11-02T05:01:11.542Z,14.07
2018-11-02T05:06:15.668Z,12.57
2018-11-02T05:11:19.870Z,13.43
2018-11-02T05:16:23.918Z,13.70
2018-11-02T05:21:28.267Z,15.60
2018-11-02T05:26:32.236Z,16.70
2018-11-02T05:31:36.439Z,15.77
2018-11-02T05:36:40.564Z,15.60
2018-11-02T05:41:44.613Z,17.37
2018-11-02T05:46:48.709Z,15.50
2018-11-02T05:51:52.914Z,22.00
2018-11-02T05:56:57.012Z,20.47
2018-11-02T06:02:01.003Z,21.60
2018-11-02T06:07:05.131Z,20.40
2018-11-02T06:12:09.142Z,21.07
2018-11-02T06:17:13.300Z,20.07
2018-11-02T06:22:17.495Z,17.23
2018-11-02T06:27:21.589Z,17.03
2018-11-02T06:32:25.788Z,14.90
2018-11-02T06:37:29.944Z,15.07
2018-11-02T06:42:33.981Z,16.40
2018-11-02T06:47:38.157Z,19.60
2018-11-02T06:52:42.301Z,22.03
2018-11-02T06:57:46.409Z,21.97
2018-11-02T07:02:50.410Z,21.80
2018-11-02T07:07:54.615Z,22.10
2018-11-02T07:12:58.572Z,18.77
2018-11-02T07:18:02.640Z,20.93
2018-11-02T07:23:07.245Z,19.30
2018-11-02T07:28:11.553Z,14.30
2018-11-02T07:33:15.601Z,14.30
2018-11-02T07:38:19.831Z,14.07
2018-11-02T07:43:23.812Z,11.70
2018-11-02T07:48:27.942Z,11.87
2018-11-02T07:53:32.000Z,11.17
2018-11-02T07:58:36.017Z,12.00
2018-11-02T08:03:40.058Z,10.83
2018-11-02T08:08:44.052Z,11.50
2018-11-02T08:13:48.172Z,15.13
2018-11-02T08:18:52.790Z,11.90
2018-11-02T08:23:57.120Z,10.60
2018-11-02T08:29:01.285Z,12.30
2018-11-02T08:34:07.148Z,12.63
2018-11-02T08:39:13.228Z,14.67
2018-11-02T08:44:18.714Z,11.37
2018-11-02T08:49:22.971Z,13.07
2018-11-02T08:54:34.062Z,10.87
2018-11-02T08:59:38.318Z,12.50
2018-11-02T09:04:42.648Z,10.80
2018-11-02T09:09:46.766Z,10.10
2018-11-02T09:14:51.789Z,9.83
2018-11-02T09:19:56.268Z,10.23
2018-11-02T09:25:00.598Z,11.40
2018-11-02T09:30:07.395Z,10.83
2018-11-02T09:35:11.941Z,12.07
2018-11-02T09:40:16.197Z,11.20
2018-11-02T09:45:23.449Z,12.47
2018-11-02T09:50:28.368Z,11.67
2018-11-02T09:55:32.646Z,11.93
2018-11-02T10:00:37.189Z,13.73
2018-11-02T10:05:41.271Z,12.87
2018-11-02T10:10:45.568Z,12.17
2018-11-02T10:15:49.664Z,12.80
2018-11-02T10:20:53.971Z,12.27
2018-11-02T10:25:58.391Z,13.90
2018-11-02T10:31:03.124Z,13.57
2018-11-02T10:36:07.847Z,13.53
2018-11-02T10:41:14.483Z,13.10
2018-11-02T10:46:18.756Z,13.70
2018-11-02T10:51:23.014Z,12.00
2018-11-02T10:56:27.269Z,10.00
2018-11-02T11:01:36.812Z,11.00
2018-11-02T11:12:19.731Z,11.63
2018-11-02T11:17:23.632Z,12.90
2018-11-02T11:22:27.659Z,13.67
2018-11-02T11:27:32.115Z,12.70
2018-11-02T11:32:36.289Z,12.30
2018-11-02T11:37:40.712Z,11.53
2018-11-02T11:42:44.583Z,12.67
2018-11-02T11:47:48.523Z,13.00
2018-11-02T11:52:53.166Z,11.77
2018-11-02T11:57:56.946Z,16.33
2018-11-02T12:03:00.546Z,12.30
2018-11-02T12:08:04.280Z,11.40
2018-11-02T12:13:08.351Z,12.30
2018-11-02T12:18:12.279Z,11.07
2018-11-02T12:23:16.231Z,13.13
2018-11-02T12:28:20.162Z,10.73
2018-11-02T12:33:25.952Z,11.53
2018-11-02T12:38:29.974Z,10.73
2018-11-02T12:43:34.235Z,9.60
2018-11-02T12:48:40.282Z,9.30
2018-11-02T12:53:44.768Z,8.70
2018-11-02T12:58:49.163Z,9.37
2018-11-02T13:03:54.162Z,8.97
2018-11-02T13:08:58.722Z,8.10
2018-11-02T13:14:03.075Z,9.97
2018-11-02T13:19:07.329Z,8.57
2018-11-02T13:24:12.023Z,7.57
2018-11-02T13:29:16.435Z,5.73
2018-11-02T13:34:20.698Z,5.67
2018-11-02T13:39:24.925Z,6.07
2018-11-02T13:44:30.274Z,5.50
2018-11-02T13:49:34.548Z,6.40
2018-11-02T13:54:38.754Z,5.63
2018-11-02T13:59:42.864Z,5.20
2018-11-02T14:04:46.973Z,4.03
2018-11-02T14:09:51.085Z,4.63
2018-11-02T14:14:55.240Z,4.93
2018-11-02T14:19:59.753Z,6.57
2018-11-02T14:25:04.216Z,7.00
2018-11-02T14:30:10.599Z,7.03
2018-11-02T14:35:14.510Z,7.07
2018-11-02T14:40:18.441Z,6.70
2018-11-02T14:45:23.104Z,6.70
2018-11-02T14:50:26.991Z,7.27
2018-11-02T14:55:30.959Z,6.97
2018-11-02T15:00:34.802Z,6.70
2018-11-02T15:05:38.654Z,6.57
2018-11-02T15:10:42.613Z,8.10
2018-11-02T15:15:46.966Z,6.80
2018-11-02T15:20:53.121Z,7.07
2018-11-02T15:25:57.450Z,6.33
2018-11-02T15:31:01.547Z,6.90
2018-11-02T15:36:06.663Z,10.10
2018-11-02T15:41:10.539Z,8.87
2018-11-02T15:46:14.667Z,8.50
2018-11-02T15:51:18.599Z,7.20
2018-11-02T15:56:22.726Z,6.80
2018-11-02T16:01:26.714Z,5.47
2018-11-02T16:06:31.158Z,7.30
2018-11-02T16:11:35.407Z,5.77
2018-11-02T16:16:39.544Z,6.13
2018-11-02T16:21:44.239Z,7.40
2018-11-02T16:26:48.288Z,9.00
2018-11-02T16:31:52.275Z,10.97
2018-11-02T16:36:58.838Z,10.77
2018-11-02T16:42:04.083Z,5.80
2018-11-02T16:47:09.865Z,10.73
2018-11-02T16:52:15.829Z,6.83
2018-11-02T16:57:23.586Z,6.30
2018-11-02T17:02:27.535Z,5.63
2018-11-02T17:07:32.482Z,5.50
2018-11-02T17:12:36.412Z,6.00
2018-11-02T17:17:40.006Z,5.33
2018-11-02T17:22:44.330Z,5.70
2018-11-02T17:27:49.450Z,5.67
2018-11-02T17:32:53.465Z,5.20
2018-11-02T17:37:57.216Z,5.57
2018-11-02T17:43:01.325Z,5.27
2018-11-02T17:48:05.371Z,5.90
2018-11-02T17:53:11.922Z,6.40
2018-11-02T17:58:15.841Z,6.40
2018-11-02T18:03:19.867Z,6.00
2018-11-02T18:08:23.948Z,5.60
2018-11-02T18:13:27.795Z,5.63
2018-11-02T18:18:31.696Z,6.47
2018-11-02T18:23:35.567Z,6.50
2018-11-02T18:28:39.455Z,6.87
2018-11-02T18:33:44.162Z,7.00
2018-11-02T18:38:48.231Z,6.77
2018-11-02T18:43:52.779Z,6.63
2018-11-02T18:48:59.321Z,6.00
2018-11-02T18:54:03.680Z,5.97
2018-11-02T18:59:08.777Z,5.97
2018-11-02T19:04:13.030Z,6.17
2018-11-02T19:09:17.822Z,5.47
2018-11-02T19:14:21.778Z,6.33
2018-11-02T19:19:25.839Z,6.47
2018-11-02T19:24:31.142Z,6.50
2018-11-02T19:29:35.337Z,6.73
2018-11-02T19:34:41.148Z,6.77
2018-11-02T19:39:44.409Z,6.83
2018-11-02T19:44:47.930Z,6.90
2018-11-02T19:49:52.709Z,7.50
2018-11-02T19:54:57.083Z,6.47
2018-11-02T20:00:00.938Z,5.97
2018-11-02T20:05:05.163Z,6.43
2018-11-02T20:10:09.278Z,6.83
2018-11-02T20:15:13.879Z,7.37
2018-11-02T20:20:17.798Z,9.03
2018-11-02T20:25:21.457Z,9.47
2018-11-02T20:30:25.275Z,6.87
2018-11-02T20:35:29.134Z,7.60
2018-11-02T20:40:33.034Z,7.93
2018-11-02T20:45:36.926Z,8.20
2018-11-02T20:50:40.818Z,7.43
2018-11-02T20:55:44.720Z,7.57
2018-11-02T21:00:49.803Z,7.83
2018-11-02T21:05:53.416Z,7.70
2018-11-02T21:10:57.058Z,6.93
2018-11-02T21:16:01.073Z,6.63
2018-11-02T21:21:05.722Z,6.80
2018-11-02T21:26:09.563Z,7.60
2018-11-02T21:31:13.185Z,9.77
2018-11-02T21:36:18.513Z,9.90
2018-11-02T21:41:22.094Z,7.97
2018-11-02T21:46:25.654Z,7.07
2018-11-02T21:51:29.217Z,6.07
2018-11-02T21:56:32.781Z,6.50
2018-11-02T22:01:36.253Z,6.60
2018-11-02T22:06:40.811Z,7.97
2018-11-02T22:11:44.459Z,6.97
2018-11-02T22:16:48.131Z,7.77
2018-11-02T22:21:51.836Z,6.80
2018-11-02T22:26:55.530Z,7.00
2018-11-02T22:31:59.336Z,7.17
2018-11-02T22:37:04.501Z,6.83
2018-11-02T22:42:08.271Z,8.70
2018-11-02T22:47:12.466Z,7.50
2018-11-02T22:52:17.136Z,6.57
2018-11-02T22:57:21.982Z,6.33
2018-11-02T23:02:26.107Z,6.73
2018-11-02T23:07:30.031Z,6.17
2018-11-02T23:12:34.441Z,6.73
2018-11-02T23:17:38.727Z,6.80
2018-11-02T23:22:42.967Z,6.93
2018-11-02T23:27:47.131Z,5.57
2018-11-02T23:32:51.214Z,6.53
2018-11-02T23:37:55.447Z,5.77
2018-11-02T23:42:59.595Z,5.60
2018-11-02T23:48:09.174Z,5.83
2018-11-02T23:53:13.232Z,5.40
2018-11-02T23:58:18.067Z,5.97
